Hovedside
METAR-TAF:

METAR-TAF

Lufthavner :

Honiara internasjonale lufthavn

Honiara, Guadalcanal, Salomonøyene

breddegrad: 09-25S, lengdegrad: 160-03E, høyde over havet: 8 m

Gjeldene værobservasjon

Denne rapporten ble laget for 1 time og 4 minutter siden, klokken 04:00 UTC
Vind 10 kt fra Øst
Temperatur 30°C
Luftfuktighet 79%
Trykk 1008 hPa
Sikt 10 km eller mer
Få skyer i en høyde av 800 ft
Få skyer i en høyde av 1800 ft, Bygeskyer.
Spredte skyer i en høyde av 2800 ft
Brutte skyer i en høyde av 30000 ft

METAR: AGGH 280400Z 09010KT 9999 FEW008 FEW018CB SCT028 BKN300 30/26 Q1008

Tid: 16:04 (05:04 UTC)

Varsel

Denne rapporten ble laget for 17 timer og 49 minutter siden, klokken 11:15 UTC
Varsel gyldig fra 27. klokken 12 UTC til 28. klokken 12 UTC
Vind 5 kt fra Sør
Sikt: 1010 m
Få skyer i en høyde av 1600 ft
Spredte skyer i en høyde av 2800 ft
Brutte skyer i en høyde av 10000 ft

TAF: AGGH 271115Z 2712/2812 18005KT 9999 FEW016 SCT028 BKN100 T 28 26 25 24 Q 1011 1009 1008 1010 TAF3

Værobservasjoner og værvarsel for over 4000 flyplasser (METAR- og TAF-rapporter).

Tilgjengelige stasjoner er representert av de røde og gule prikkene på kartet.

Hold musepekeren over prikken for å se navnet på stasjonen.

Klikk så for å se værobservasjoner og -varsler.

For å forandre kartet kan du klikke på den grønne knappen med svart kryss for å zoome inn, på den grønne knappen med strek for å zoome ut, eller på de grønne pilene for å se tilstøtende kart.


METAR-TAF: